createdAt,value
2016-11-05T00:00:50.628Z,0
2016-11-05T00:02:03.601Z,0
2016-11-05T00:03:14.517Z,0
2016-11-05T00:04:25.616Z,0
2016-11-05T00:05:36.938Z,0
2016-11-05T00:06:49.530Z,0
2016-11-05T00:08:01.065Z,0
2016-11-05T00:09:13.073Z,0
2016-11-05T00:10:24.957Z,0
2016-11-05T00:11:35.297Z,0
2016-11-05T00:12:47.784Z,0
2016-11-05T00:13:59.542Z,0
2016-11-05T00:15:12.384Z,0
2016-11-05T00:16:24.462Z,0
2016-11-05T00:17:36.060Z,0
2016-11-05T00:18:48.047Z,0
2016-11-05T00:19:59.826Z,0
2016-11-05T00:21:10.225Z,0
2016-11-05T00:22:22.515Z,0
2016-11-05T00:23:33.584Z,0
2016-11-05T00:24:44.892Z,0
2016-11-05T00:25:56.447Z,0
2016-11-05T00:27:08.614Z,0
2016-11-05T00:28:19.680Z,0
2016-11-05T00:29:31.278Z,0
2016-11-05T00:30:41.277Z,0
2016-11-05T00:31:52.047Z,0
2016-11-05T00:33:03.742Z,0
2016-11-05T00:34:15.766Z,0
2016-11-05T00:35:27.969Z,0
2016-11-05T00:36:40.402Z,0
2016-11-05T00:37:52.503Z,0
2016-11-05T00:39:03.072Z,0
2016-11-05T00:40:14.205Z,0
2016-11-05T00:41:24.827Z,0
2016-11-05T00:42:36.536Z,0
2016-11-05T00:43:48.603Z,0
2016-11-05T00:45:00.830Z,0
2016-11-05T00:46:12.241Z,0
2016-11-05T00:47:24.444Z,0
2016-11-05T00:48:34.764Z,0
2016-11-05T00:49:46.578Z,0
2016-11-05T00:50:57.570Z,0
2016-11-05T00:52:09.594Z,0
2016-11-05T00:53:20.678Z,0
2016-11-05T00:54:33.528Z,0
2016-11-05T00:55:44.456Z,0
2016-11-05T00:56:56.185Z,0
2016-11-05T00:58:07.893Z,0
2016-11-05T00:59:20.194Z,0
2016-11-05T01:00:32.355Z,0
2016-11-05T01:01:44.271Z,0
2016-11-05T01:02:55.797Z,0
2016-11-05T01:04:07.884Z,0
2016-11-05T01:05:19.080Z,0
2016-11-05T01:06:30.122Z,0
2016-11-05T01:07:42.210Z,0
2016-11-05T01:08:54.271Z,0
2016-11-05T01:10:07.107Z,0
2016-11-05T01:11:20.164Z,0
2016-11-05T01:12:32.382Z,0
2016-11-05T01:13:43.036Z,0
2016-11-05T01:14:53.254Z,0
2016-11-05T01:16:05.890Z,0
2016-11-05T01:17:17.104Z,0
2016-11-05T01:18:30.278Z,0
2016-11-05T01:19:42.158Z,0
2016-11-05T01:20:53.946Z,0
2016-11-05T01:22:05.322Z,0
2016-11-05T01:23:17.549Z,0
2016-11-05T01:24:29.876Z,0
2016-11-05T01:25:42.209Z,0
2016-11-05T01:26:54.042Z,0
2016-11-05T01:28:05.000Z,0
2016-11-05T01:29:17.206Z,0
2016-11-05T01:30:30.472Z,0
2016-11-05T01:31:42.385Z,0
2016-11-05T01:32:55.143Z,0
2016-11-05T01:34:05.767Z,0
2016-11-05T01:35:18.415Z,0
2016-11-05T01:36:28.513Z,0
2016-11-05T01:37:40.480Z,0
2016-11-05T01:38:52.779Z,0
2016-11-05T01:40:04.936Z,0
2016-11-05T01:41:17.051Z,0
2016-11-05T01:42:29.290Z,0
2016-11-05T01:43:41.363Z,0
2016-11-05T01:44:52.947Z,0
2016-11-05T01:46:04.994Z,0
2016-11-05T01:47:18.104Z,0
2016-11-05T01:48:29.275Z,0
2016-11-05T01:49:41.134Z,0
2016-11-05T01:50:54.355Z,0
2016-11-05T01:52:05.322Z,0
2016-11-05T01:53:17.821Z,0
2016-11-05T01:54:29.290Z,0
2016-11-05T01:55:41.113Z,0
2016-11-05T01:56:53.672Z,0
2016-11-05T01:58:05.949Z,0
2016-11-05T01:59:18.190Z,0
2016-11-05T02:00:30.909Z,0
2016-11-05T02:01:43.651Z,0
2016-11-05T02:02:54.749Z,0
2016-11-05T02:04:06.925Z,0
2016-11-05T02:05:18.826Z,0
2016-11-05T02:06:30.446Z,0
2016-11-05T02:07:42.113Z,0
2016-11-05T02:08:53.465Z,0
2016-11-05T02:10:03.087Z,0
2016-11-05T02:11:15.557Z,0
2016-11-05T02:12:26.427Z,0
2016-11-05T02:13:37.767Z,0
2016-11-05T02:14:49.791Z,0
2016-11-05T02:16:00.608Z,0
2016-11-05T02:17:13.396Z,0
2016-11-05T02:18:24.675Z,0
2016-11-05T02:19:37.381Z,0
2016-11-05T02:20:49.220Z,0
2016-11-05T02:22:01.250Z,0
2016-11-05T02:23:13.055Z,0
2016-11-05T02:24:25.318Z,0
2016-11-05T02:25:38.014Z,0
2016-11-05T02:26:49.247Z,0
2016-11-05T02:28:00.685Z,0
2016-11-05T02:29:11.944Z,0
2016-11-05T02:30:23.938Z,0
2016-11-05T02:31:36.482Z,0
2016-11-05T02:32:47.786Z,0
2016-11-05T02:33:59.520Z,0
2016-11-05T02:35:10.553Z,0
2016-11-05T02:36:21.908Z,0
2016-11-05T02:37:33.305Z,0
2016-11-05T02:38:44.177Z,0
2016-11-05T02:39:55.750Z,0
2016-11-05T02:41:08.481Z,0
2016-11-05T02:42:21.197Z,0
2016-11-05T02:43:33.122Z,0
2016-11-05T02:44:45.391Z,0
2016-11-05T02:45:58.117Z,0
2016-11-05T02:47:10.397Z,0
2016-11-05T02:48:23.134Z,0
2016-11-05T02:49:34.863Z,0
2016-11-05T02:50:45.951Z,0
2016-11-05T02:51:58.642Z,0
2016-11-05T02:53:10.415Z,0
2016-11-05T02:54:22.954Z,0
2016-11-05T02:55:35.269Z,0
2016-11-05T02:56:47.170Z,0
2016-11-05T02:57:58.415Z,0
2016-11-05T02:59:10.194Z,0
2016-11-05T03:00:21.130Z,0
2016-11-05T03:01:32.713Z,0
2016-11-05T03:02:42.895Z,0
2016-11-05T03:03:54.767Z,0
2016-11-05T03:05:06.860Z,0
2016-11-05T03:06:19.698Z,0
2016-11-05T03:07:30.519Z,0
2016-11-05T03:08:41.796Z,0
2016-11-05T03:09:52.946Z,0
2016-11-05T03:11:04.555Z,0
2016-11-05T03:12:16.095Z,0
2016-11-05T03:13:28.017Z,0
2016-11-05T03:14:39.606Z,0
2016-11-05T03:15:51.269Z,0
2016-11-05T03:17:02.752Z,0
2016-11-05T03:18:15.865Z,0
2016-11-05T03:19:27.000Z,0
2016-11-05T03:20:40.279Z,0
2016-11-05T03:21:52.328Z,0
2016-11-05T03:23:04.276Z,0
2016-11-05T03:24:16.179Z,0
2016-11-05T03:25:27.729Z,0
2016-11-05T03:26:39.800Z,0
2016-11-05T03:27:51.467Z,0
2016-11-05T03:29:04.260Z,0
2016-11-05T03:30:16.451Z,0
2016-11-05T03:31:28.618Z,0
2016-11-05T03:32:39.821Z,0
2016-11-05T03:33:51.015Z,0
2016-11-05T03:35:02.827Z,0
2016-11-05T03:36:15.901Z,0
2016-11-05T03:37:27.958Z,0
2016-11-05T03:38:38.806Z,0
2016-11-05T03:39:50.974Z,0
2016-11-05T03:41:02.791Z,0
2016-11-05T03:42:14.994Z,0
2016-11-05T03:43:27.048Z,0
2016-11-05T03:44:38.919Z,0
2016-11-05T03:45:51.633Z,0
2016-11-05T03:47:03.752Z,0
2016-11-05T03:48:14.672Z,0
2016-11-05T03:49:25.254Z,0
2016-11-05T03:50:37.018Z,0
2016-11-05T03:51:48.329Z,0
2016-11-05T03:53:00.526Z,0
2016-11-05T03:54:11.902Z,0
2016-11-05T03:55:23.612Z,0
2016-11-05T03:56:35.170Z,0
2016-11-05T03:57:46.598Z,0
2016-11-05T03:58:58.185Z,0
2016-11-05T04:00:10.507Z,0
2016-11-05T04:01:23.756Z,0
2016-11-05T04:02:36.416Z,0
2016-11-05T04:03:48.376Z,0
2016-11-05T04:04:59.849Z,0
2016-11-05T04:06:12.595Z,0
2016-11-05T04:07:24.711Z,0
2016-11-05T04:08:36.839Z,0
2016-11-05T04:09:48.082Z,0
2016-11-05T04:10:58.917Z,0
2016-11-05T04:12:10.021Z,0
2016-11-05T04:13:21.467Z,0
2016-11-05T04:14:33.282Z,0
2016-11-05T04:15:45.183Z,0
2016-11-05T04:16:57.186Z,0
2016-11-05T04:18:09.278Z,0
2016-11-05T04:19:19.150Z,0
2016-11-05T04:20:30.592Z,0
2016-11-05T04:21:43.902Z,0
2016-11-05T04:22:55.413Z,0
2016-11-05T04:24:07.938Z,0
2016-11-05T04:25:19.765Z,0
2016-11-05T04:26:32.488Z,0
2016-11-05T04:27:43.795Z,0
2016-11-05T04:28:55.395Z,0
2016-11-05T04:30:06.977Z,0
2016-11-05T04:31:18.079Z,0
2016-11-05T04:32:30.786Z,0
2016-11-05T04:33:42.150Z,0
2016-11-05T04:34:54.452Z,0
2016-11-05T04:36:05.691Z,0
2016-11-05T04:37:17.085Z,0
2016-11-05T04:38:29.270Z,0
2016-11-05T04:39:40.613Z,0
2016-11-05T04:40:53.231Z,0
2016-11-05T04:42:05.404Z,0
2016-11-05T04:43:17.393Z,0
2016-11-05T04:44:30.598Z,0
2016-11-05T04:45:42.168Z,0
2016-11-05T04:46:55.372Z,0
2016-11-05T04:48:06.046Z,0
2016-11-05T04:49:19.165Z,0
2016-11-05T04:50:31.029Z,0
2016-11-05T04:51:42.357Z,0
2016-11-05T04:52:54.896Z,0
2016-11-05T04:54:06.199Z,0
2016-11-05T04:55:18.136Z,0
2016-11-05T04:56:29.708Z,0
2016-11-05T04:57:41.662Z,0
2016-11-05T04:58:53.511Z,0
2016-11-05T05:00:05.163Z,0
2016-11-05T05:01:17.615Z,0
2016-11-05T05:02:29.887Z,0
2016-11-05T05:03:40.947Z,0
2016-11-05T05:04:51.590Z,0
2016-11-05T05:06:03.205Z,0
2016-11-05T05:07:15.930Z,0
2016-11-05T05:08:27.706Z,0
2016-11-05T05:09:39.859Z,0
2016-11-05T05:10:50.986Z,0
2016-11-05T05:12:03.118Z,0
2016-11-05T05:13:14.515Z,0
2016-11-05T05:14:26.715Z,0
2016-11-05T05:15:38.662Z,0
2016-11-05T05:16:50.917Z,0
2016-11-05T05:18:02.336Z,0
2016-11-05T05:19:15.127Z,0
2016-11-05T05:20:25.497Z,0
2016-11-05T05:21:37.962Z,0
2016-11-05T05:22:49.877Z,0
2016-11-05T05:24:02.557Z,0
2016-11-05T05:25:14.032Z,0
2016-11-05T05:26:25.097Z,0
2016-11-05T05:27:36.232Z,0
2016-11-05T05:28:48.966Z,0
2016-11-05T05:30:02.097Z,0
2016-11-05T05:31:14.659Z,0
2016-11-05T05:32:26.760Z,0
2016-11-05T05:33:38.924Z,0
2016-11-05T05:34:51.044Z,0
2016-11-05T05:36:03.136Z,0
2016-11-05T05:37:15.784Z,0
2016-11-05T05:38:27.621Z,0
2016-11-05T05:39:37.999Z,0
2016-11-05T05:40:50.607Z,0
2016-11-05T05:42:02.462Z,0
2016-11-05T05:43:14.623Z,0
2016-11-05T05:44:25.703Z,0
2016-11-05T05:45:36.500Z,0
2016-11-05T05:46:49.092Z,0
2016-11-05T05:48:00.486Z,0
2016-11-05T05:49:11.327Z,0
2016-11-05T05:50:23.572Z,0
2016-11-05T05:51:34.740Z,0
2016-11-05T05:52:47.281Z,0
2016-11-05T05:53:58.665Z,0
2016-11-05T05:55:10.709Z,0
2016-11-05T05:56:22.316Z,0
2016-11-05T05:57:34.721Z,0
2016-11-05T05:58:46.127Z,0
2016-11-05T05:59:57.731Z,0
2016-11-05T06:01:10.981Z,0
2016-11-05T06:02:22.151Z,0
2016-11-05T06:03:34.154Z,0
2016-11-05T06:04:45.948Z,0
2016-11-05T06:05:58.202Z,0
2016-11-05T06:07:09.283Z,0
2016-11-05T06:08:20.515Z,0
2016-11-05T06:09:33.748Z,0
2016-11-05T06:10:46.784Z,0
2016-11-05T06:11:58.665Z,0
2016-11-05T06:13:10.590Z,0
2016-11-05T06:14:21.799Z,0
2016-11-05T06:15:33.590Z,0
2016-11-05T06:16:45.452Z,0
2016-11-05T06:17:56.602Z,0
2016-11-05T06:19:09.297Z,0
2016-11-05T06:20:21.938Z,0
2016-11-05T06:21:33.930Z,0
2016-11-05T06:22:45.586Z,0
2016-11-05T06:23:58.132Z,0
2016-11-05T06:25:09.351Z,0
2016-11-05T06:26:20.747Z,0
2016-11-05T06:27:33.016Z,0
2016-11-05T06:28:43.867Z,0
2016-11-05T06:29:54.793Z,0
2016-11-05T06:31:05.366Z,0
2016-11-05T06:32:17.360Z,0
2016-11-05T06:33:29.450Z,0
2016-11-05T06:34:41.641Z,0
2016-11-05T06:35:53.619Z,0
2016-11-05T06:37:05.798Z,0
2016-11-05T06:38:17.449Z,0
2016-11-05T06:39:28.533Z,5
2016-11-05T06:40:39.818Z,5
2016-11-05T06:41:51.321Z,5
2016-11-05T06:43:02.856Z,5
2016-11-05T06:44:14.750Z,5
2016-11-05T06:45:25.911Z,5
2016-11-05T06:46:38.705Z,5
2016-11-05T06:47:50.095Z,5
2016-11-05T06:49:01.720Z,10
2016-11-05T06:50:13.607Z,10
2016-11-05T06:51:25.161Z,10
2016-11-05T06:52:37.316Z,10
2016-11-05T06:53:48.937Z,10
2016-11-05T06:55:02.125Z,10
2016-11-05T06:56:13.355Z,10
2016-11-05T06:57:25.517Z,10
2016-11-05T06:58:36.730Z,10
2016-11-05T06:59:49.211Z,15
2016-11-05T07:01:00.486Z,15
2016-11-05T07:02:11.859Z,15
2016-11-05T07:03:23.002Z,20
2016-11-05T07:04:34.644Z,20
2016-11-05T07:05:46.089Z,25
2016-11-05T07:06:58.080Z,30
2016-11-05T07:08:09.581Z,35
2016-11-05T07:09:20.202Z,35
2016-11-05T07:10:31.732Z,35
2016-11-05T07:11:44.345Z,35
2016-11-05T07:12:56.531Z,35
2016-11-05T07:14:07.297Z,40
2016-11-05T07:15:19.085Z,40
2016-11-05T07:16:30.560Z,40
2016-11-05T07:17:42.008Z,45
2016-11-05T07:18:52.595Z,45
2016-11-05T07:20:04.523Z,45
2016-11-05T07:21:17.229Z,45
2016-11-05T07:22:27.962Z,40
2016-11-05T07:23:39.234Z,40
2016-11-05T07:24:50.592Z,40
2016-11-05T07:26:02.367Z,45
2016-11-05T07:27:13.177Z,45
2016-11-05T07:28:25.308Z,45
2016-11-05T07:29:38.473Z,45
2016-11-05T07:30:49.428Z,45
2016-11-05T07:32:02.031Z,45
2016-11-05T07:33:12.201Z,45
2016-11-05T07:34:23.544Z,45
2016-11-05T07:35:35.293Z,50
2016-11-05T07:36:46.944Z,55
2016-11-05T07:37:59.162Z,55
2016-11-05T07:39:11.371Z,50
2016-11-05T07:40:23.502Z,50
2016-11-05T07:41:35.446Z,50
2016-11-05T07:42:47.693Z,55
2016-11-05T07:43:58.228Z,50
2016-11-05T07:45:10.532Z,55
2016-11-05T07:46:23.102Z,55
2016-11-05T07:47:35.240Z,60
2016-11-05T07:48:47.342Z,60
2016-11-05T07:50:00.083Z,60
2016-11-05T07:51:11.565Z,70
2016-11-05T07:52:23.954Z,65
2016-11-05T07:53:36.664Z,60
2016-11-05T07:54:49.267Z,55
2016-11-05T07:56:01.769Z,60
2016-11-05T07:57:12.727Z,65
2016-11-05T07:58:24.693Z,75
2016-11-05T07:59:36.905Z,85
2016-11-05T08:00:47.345Z,90
2016-11-05T08:02:00.023Z,95
2016-11-05T08:03:12.055Z,85
2016-11-05T08:04:24.186Z,85
2016-11-05T08:05:35.183Z,75
2016-11-05T08:06:46.423Z,70
2016-11-05T08:07:58.675Z,60
2016-11-05T08:09:10.947Z,70
2016-11-05T08:10:22.637Z,85
2016-11-05T08:11:34.757Z,90
2016-11-05T08:12:46.542Z,90
2016-11-05T08:13:58.059Z,115
2016-11-05T08:15:09.191Z,120
2016-11-05T08:16:20.459Z,120
2016-11-05T08:17:32.751Z,100
2016-11-05T08:18:43.763Z,100
2016-11-05T08:19:55.424Z,100
2016-11-05T08:21:07.862Z,100
2016-11-05T08:22:19.830Z,100
2016-11-05T08:23:30.675Z,100
2016-11-05T08:24:43.199Z,105
2016-11-05T08:25:55.672Z,120
2016-11-05T08:27:08.147Z,135
2016-11-05T08:28:19.439Z,155
2016-11-05T08:29:30.811Z,160
2016-11-05T08:30:41.987Z,160
2016-11-05T08:31:53.090Z,150
2016-11-05T08:33:05.094Z,130
2016-11-05T08:34:17.226Z,130
2016-11-05T08:35:29.972Z,105
2016-11-05T08:36:42.157Z,95
2016-11-05T08:37:53.806Z,100
2016-11-05T08:39:04.848Z,95
2016-11-05T08:40:15.372Z,135
2016-11-05T08:41:26.283Z,135
2016-11-05T08:42:37.543Z,155
2016-11-05T08:43:50.391Z,225
2016-11-05T08:45:01.919Z,240
2016-11-05T08:46:13.573Z,160
2016-11-05T08:47:25.234Z,150
2016-11-05T08:48:37.439Z,150
2016-11-05T08:49:48.836Z,160
2016-11-05T08:51:00.860Z,155
2016-11-05T08:52:13.683Z,150
2016-11-05T08:53:24.979Z,145
2016-11-05T08:54:35.827Z,155
2016-11-05T08:55:47.212Z,155
2016-11-05T08:56:58.516Z,135
2016-11-05T08:58:09.609Z,130
2016-11-05T08:59:21.442Z,140
2016-11-05T09:00:32.866Z,125
2016-11-05T09:01:44.815Z,145
2016-11-05T09:02:56.567Z,165
2016-11-05T09:04:08.137Z,150
2016-11-05T09:05:19.072Z,155
2016-11-05T09:06:30.816Z,205
2016-11-05T09:07:41.388Z,160
2016-11-05T09:08:53.812Z,180
2016-11-05T09:10:05.170Z,170
2016-11-05T09:11:17.082Z,215
2016-11-05T09:12:28.777Z,200
2016-11-05T09:13:40.277Z,200
2016-11-05T09:14:51.971Z,225
2016-11-05T09:16:04.308Z,160
2016-11-05T09:17:16.135Z,175
2016-11-05T09:18:27.355Z,190
2016-11-05T09:19:38.720Z,200
2016-11-05T09:20:49.319Z,190
2016-11-05T09:22:02.182Z,195
2016-11-05T09:23:13.749Z,210
2016-11-05T09:24:24.804Z,210
2016-11-05T09:25:35.696Z,200
2016-11-05T09:26:46.902Z,235
2016-11-05T09:27:59.141Z,220
2016-11-05T09:29:10.604Z,235
2016-11-05T09:30:20.461Z,320
2016-11-05T09:31:32.673Z,260
2016-11-05T09:32:44.613Z,255
2016-11-05T09:33:55.896Z,225
2016-11-05T09:35:07.506Z,325
2016-11-05T09:36:18.631Z,345
2016-11-05T09:37:31.939Z,365
2016-11-05T09:38:44.520Z,300
2016-11-05T09:39:55.240Z,335
2016-11-05T09:41:05.683Z,285
2016-11-05T09:42:16.712Z,270
2016-11-05T09:43:28.232Z,235
2016-11-05T09:44:41.062Z,195
2016-11-05T09:45:52.280Z,175
2016-11-05T09:47:03.207Z,225
2016-11-05T09:48:14.735Z,205
2016-11-05T09:49:26.330Z,185
2016-11-05T09:50:37.518Z,200
2016-11-05T09:51:48.656Z,160
2016-11-05T09:52:59.971Z,210
2016-11-05T09:54:10.714Z,200
2016-11-05T09:55:23.296Z,195
2016-11-05T09:56:33.968Z,205
2016-11-05T09:57:45.457Z,230
2016-11-05T09:58:56.730Z,290
2016-11-05T10:00:09.196Z,270
2016-11-05T10:01:21.220Z,250
2016-11-05T10:02:33.133Z,255
2016-11-05T10:03:43.748Z,290
2016-11-05T10:04:55.084Z,340
2016-11-05T10:06:07.112Z,290
2016-11-05T10:07:19.271Z,290
2016-11-05T10:08:29.722Z,185
2016-11-05T10:09:41.271Z,140
2016-11-05T10:10:52.731Z,130
2016-11-05T10:12:04.827Z,130
2016-11-05T10:13:16.972Z,100
2016-11-05T10:14:28.791Z,115
2016-11-05T10:15:41.269Z,110
2016-11-05T10:16:53.648Z,125
2016-11-05T10:18:05.408Z,100
2016-11-05T10:19:17.063Z,105
2016-11-05T10:20:28.898Z,100
2016-11-05T10:21:41.491Z,95
2016-11-05T10:22:53.007Z,95
2016-11-05T10:24:05.193Z,95
2016-11-05T10:25:17.397Z,90
2016-11-05T10:26:29.681Z,90
2016-11-05T10:27:42.442Z,100
2016-11-05T10:28:53.007Z,95
2016-11-05T10:30:05.116Z,90
2016-11-05T10:31:17.264Z,105
2016-11-05T10:32:29.194Z,100
2016-11-05T10:33:40.298Z,105
2016-11-05T10:34:51.046Z,195
2016-11-05T10:36:02.226Z,120
2016-11-05T10:37:14.191Z,190
2016-11-05T10:38:25.347Z,115
2016-11-05T10:39:36.363Z,125
2016-11-05T10:40:47.982Z,130
2016-11-05T10:41:58.218Z,210
2016-11-05T10:43:10.603Z,180
2016-11-05T10:44:23.358Z,140
2016-11-05T10:45:35.534Z,135
2016-11-05T10:46:46.600Z,205
2016-11-05T10:47:59.439Z,195
2016-11-05T10:49:09.594Z,185
2016-11-05T10:50:21.846Z,185
2016-11-05T10:51:35.031Z,185
2016-11-05T10:52:47.191Z,190
2016-11-05T10:53:59.075Z,195
2016-11-05T10:55:10.842Z,220
2016-11-05T10:56:22.880Z,250
2016-11-05T10:57:34.666Z,295
2016-11-05T10:58:46.580Z,250
2016-11-05T10:59:58.285Z,280
2016-11-05T11:01:08.901Z,320
2016-11-05T11:02:22.012Z,350
2016-11-05T11:03:33.532Z,335
2016-11-05T11:04:46.219Z,295
2016-11-05T11:05:57.532Z,235
2016-11-05T11:07:09.184Z,230
2016-11-05T11:08:22.014Z,235
2016-11-05T11:09:33.186Z,225
2016-11-05T11:10:45.146Z,200
2016-11-05T11:11:57.439Z,170
2016-11-05T11:13:09.313Z,210
2016-11-05T11:14:20.395Z,220
2016-11-05T11:15:30.578Z,210
2016-11-05T11:16:42.755Z,220
2016-11-05T11:17:53.552Z,205
2016-11-05T11:19:05.535Z,195
2016-11-05T11:20:17.660Z,195
2016-11-05T11:21:29.440Z,205
2016-11-05T11:22:41.513Z,205
2016-11-05T11:23:52.762Z,160
2016-11-05T11:25:04.334Z,205
2016-11-05T11:26:15.768Z,225
2016-11-05T11:27:26.643Z,255
2016-11-05T11:28:38.121Z,370
2016-11-05T11:29:49.890Z,375
2016-11-05T11:31:03.134Z,355
2016-11-05T11:32:13.659Z,235
2016-11-05T11:33:24.298Z,260
2016-11-05T11:34:34.971Z,235
2016-11-05T11:35:47.724Z,200
2016-11-05T11:36:58.946Z,185
2016-11-05T11:38:09.377Z,185
2016-11-05T11:39:20.278Z,130
2016-11-05T11:40:33.389Z,180
2016-11-05T11:41:44.229Z,180
2016-11-05T11:42:56.822Z,190
2016-11-05T11:44:08.963Z,180
2016-11-05T11:45:20.102Z,170
2016-11-05T11:46:31.845Z,170
2016-11-05T11:47:45.048Z,170
2016-11-05T11:48:57.288Z,170
2016-11-05T11:50:09.436Z,165
2016-11-05T11:51:20.332Z,160
2016-11-05T11:52:32.531Z,180
2016-11-05T11:53:44.088Z,165
2016-11-05T11:54:55.992Z,160
2016-11-05T11:56:07.508Z,155
2016-11-05T11:57:19.027Z,155
2016-11-05T11:58:31.020Z,155
2016-11-05T11:59:42.765Z,160
2016-11-05T12:00:54.003Z,150
2016-11-05T12:02:06.114Z,150
2016-11-05T12:03:17.727Z,150
2016-11-05T12:04:28.769Z,150
2016-11-05T12:05:40.690Z,155
2016-11-05T12:06:52.485Z,150
2016-11-05T12:08:03.910Z,150
2016-11-05T12:09:13.969Z,155
2016-11-05T12:10:26.032Z,160
2016-11-05T12:11:38.856Z,155
2016-11-05T12:12:50.561Z,150
2016-11-05T12:14:02.598Z,145
2016-11-05T12:15:13.777Z,145
2016-11-05T12:16:25.395Z,145
2016-11-05T12:17:37.691Z,145
2016-11-05T12:18:49.713Z,140
2016-11-05T12:20:01.025Z,140
2016-11-05T12:21:13.553Z,140
2016-11-05T12:22:24.860Z,140
2016-11-05T12:23:36.447Z,140
2016-11-05T12:24:49.529Z,140
2016-11-05T12:26:01.271Z,140
2016-11-05T12:27:13.442Z,140
2016-11-05T12:28:24.841Z,140
2016-11-05T12:29:36.280Z,140
2016-11-05T12:30:48.122Z,140
2016-11-05T12:32:00.070Z,140
2016-11-05T12:33:10.292Z,135
2016-11-05T12:34:21.325Z,140
2016-11-05T12:35:33.080Z,135
2016-11-05T12:36:44.615Z,135
2016-11-05T12:37:57.304Z,135
2016-11-05T12:39:09.782Z,135
2016-11-05T12:40:22.498Z,135
2016-11-05T12:41:34.304Z,135
2016-11-05T12:42:45.913Z,130
2016-11-05T12:43:58.506Z,130
2016-11-05T12:45:09.891Z,130
2016-11-05T12:46:21.786Z,130
2016-11-05T12:47:33.892Z,130
2016-11-05T12:48:45.792Z,130
2016-11-05T12:49:56.892Z,130
2016-11-05T12:51:08.732Z,130
2016-11-05T12:52:20.413Z,130
2016-11-05T12:53:32.440Z,130
2016-11-05T12:54:44.564Z,135
2016-11-05T12:55:56.485Z,130
2016-11-05T12:57:09.289Z,125
2016-11-05T12:58:21.612Z,125
2016-11-05T12:59:32.615Z,125
2016-11-05T13:00:44.829Z,125
2016-11-05T13:01:55.337Z,130
2016-11-05T13:03:07.377Z,135
2016-11-05T13:04:18.294Z,135
2016-11-05T13:05:30.144Z,135
2016-11-05T13:06:42.004Z,135
2016-11-05T13:07:53.227Z,130
2016-11-05T13:09:05.428Z,125
2016-11-05T13:10:16.546Z,120
2016-11-05T13:11:27.025Z,120
2016-11-05T13:12:39.568Z,115
2016-11-05T13:13:50.831Z,115
2016-11-05T13:15:02.213Z,115
2016-11-05T13:16:13.732Z,115
2016-11-05T13:17:24.598Z,85
2016-11-05T13:18:37.270Z,115
2016-11-05T13:19:49.314Z,110
2016-11-05T13:21:00.466Z,110
2016-11-05T13:22:11.212Z,110
2016-11-05T13:23:22.349Z,110
2016-11-05T13:24:32.831Z,110
2016-11-05T13:25:44.173Z,110
2016-11-05T13:26:56.983Z,100
2016-11-05T13:28:09.223Z,105
2016-11-05T13:29:20.316Z,105
2016-11-05T13:30:32.206Z,85
2016-11-05T13:31:44.549Z,80
2016-11-05T13:32:56.558Z,105
2016-11-05T13:34:08.067Z,105
2016-11-05T13:35:19.791Z,100
2016-11-05T13:36:31.543Z,105
2016-11-05T13:37:42.514Z,105
2016-11-05T13:38:54.621Z,105
2016-11-05T13:40:06.062Z,80
2016-11-05T13:41:17.474Z,100
2016-11-05T13:42:28.183Z,100
2016-11-05T13:43:39.864Z,100
2016-11-05T13:44:52.839Z,100
2016-11-05T13:46:04.307Z,100
2016-11-05T13:47:16.155Z,100
2016-11-05T13:48:28.173Z,100
2016-11-05T13:49:40.383Z,100
2016-11-05T13:50:52.911Z,100
2016-11-05T13:52:04.479Z,70
2016-11-05T13:53:16.689Z,70
2016-11-05T13:54:28.155Z,70
2016-11-05T13:55:39.677Z,75
2016-11-05T13:56:51.200Z,70
2016-11-05T13:58:02.764Z,70
2016-11-05T13:59:14.915Z,70
2016-11-05T14:00:27.458Z,95
2016-11-05T14:01:39.711Z,95
2016-11-05T14:02:51.698Z,95
2016-11-05T14:04:03.935Z,75
2016-11-05T14:05:17.240Z,75
2016-11-05T14:06:29.155Z,90
2016-11-05T14:07:41.609Z,90
2016-11-05T14:08:54.001Z,95
2016-11-05T14:10:04.689Z,75
2016-11-05T14:11:14.983Z,75
2016-11-05T14:12:26.014Z,90
2016-11-05T14:13:38.157Z,90
2016-11-05T14:14:49.668Z,90
2016-11-05T14:16:01.437Z,85
2016-11-05T14:17:14.054Z,90
2016-11-05T14:18:25.983Z,90
2016-11-05T14:19:36.461Z,80
2016-11-05T14:20:46.307Z,80
2016-11-05T14:21:57.956Z,85
2016-11-05T14:23:09.407Z,85
2016-11-05T14:24:22.068Z,85
2016-11-05T14:25:34.227Z,85
2016-11-05T14:26:44.818Z,85
2016-11-05T14:27:56.337Z,80
2016-11-05T14:29:08.086Z,80
2016-11-05T14:30:19.019Z,70
2016-11-05T14:31:30.780Z,80
2016-11-05T14:32:41.767Z,70
2016-11-05T14:33:53.597Z,65
2016-11-05T14:35:05.519Z,65
2016-11-05T14:36:15.383Z,70
2016-11-05T14:37:27.466Z,90
2016-11-05T14:38:40.026Z,110
2016-11-05T14:39:50.243Z,125
2016-11-05T14:41:00.749Z,140
2016-11-05T14:42:12.701Z,135
2016-11-05T14:43:23.420Z,130
2016-11-05T14:44:34.345Z,125
2016-11-05T14:45:45.585Z,130
2016-11-05T14:46:57.121Z,110
2016-11-05T14:48:08.327Z,110
2016-11-05T14:49:19.549Z,110
2016-11-05T14:50:30.621Z,105
2016-11-05T14:51:42.197Z,110
2016-11-05T14:52:54.108Z,120
2016-11-05T14:54:05.631Z,120
2016-11-05T14:55:18.269Z,120
2016-11-05T14:56:30.538Z,125
2016-11-05T14:57:42.472Z,120
2016-11-05T14:58:53.797Z,110
2016-11-05T15:00:05.434Z,95
2016-11-05T15:01:17.388Z,85
2016-11-05T15:02:29.031Z,80
2016-11-05T15:03:39.436Z,85
2016-11-05T15:04:51.636Z,75
2016-11-05T15:06:03.931Z,75
2016-11-05T15:07:16.509Z,85
2016-11-05T15:08:28.728Z,95
2016-11-05T15:09:40.355Z,100
2016-11-05T15:10:51.777Z,105
2016-11-05T15:12:03.451Z,100
2016-11-05T15:13:14.792Z,100
2016-11-05T15:14:26.845Z,100
2016-11-05T15:15:38.077Z,90
2016-11-05T15:16:50.043Z,75
2016-11-05T15:18:02.255Z,65
2016-11-05T15:19:12.876Z,60
2016-11-05T15:20:25.104Z,55
2016-11-05T15:21:36.078Z,60
2016-11-05T15:22:48.782Z,60
2016-11-05T15:23:59.278Z,65
2016-11-05T15:25:09.958Z,65
2016-11-05T15:26:20.301Z,65
2016-11-05T15:27:31.879Z,65
2016-11-05T15:28:42.680Z,65
2016-11-05T15:29:53.956Z,60
2016-11-05T15:31:05.931Z,60
2016-11-05T15:32:18.170Z,60
2016-11-05T15:33:30.848Z,60
2016-11-05T15:34:41.596Z,65
2016-11-05T15:35:53.820Z,65
2016-11-05T15:37:05.948Z,65
2016-11-05T15:38:17.471Z,60
2016-11-05T15:39:28.372Z,60
2016-11-05T15:40:40.345Z,55
2016-11-05T15:41:53.064Z,55
2016-11-05T15:43:05.477Z,55
2016-11-05T15:44:17.132Z,55
2016-11-05T15:45:28.938Z,55
2016-11-05T15:46:40.596Z,55
2016-11-05T15:47:53.249Z,55
2016-11-05T15:49:04.132Z,60
2016-11-05T15:50:15.511Z,60
2016-11-05T15:51:27.499Z,60
2016-11-05T15:52:38.517Z,60
2016-11-05T15:53:49.304Z,65
2016-11-05T15:55:01.479Z,65
2016-11-05T15:56:12.141Z,70
2016-11-05T15:57:24.932Z,70
2016-11-05T15:58:36.744Z,65
2016-11-05T15:59:48.446Z,65
2016-11-05T16:00:59.449Z,65
2016-11-05T16:02:10.053Z,70
2016-11-05T16:03:22.174Z,70
2016-11-05T16:04:32.622Z,65
2016-11-05T16:05:44.086Z,70
2016-11-05T16:06:55.174Z,70
2016-11-05T16:08:06.419Z,65
2016-11-05T16:09:16.347Z,65
2016-11-05T16:10:28.951Z,60
2016-11-05T16:11:40.041Z,60
2016-11-05T16:12:52.080Z,60
2016-11-05T16:14:03.996Z,60
2016-11-05T16:15:15.484Z,55
2016-11-05T16:16:27.220Z,55
2016-11-05T16:17:38.499Z,50
2016-11-05T16:18:50.990Z,50
2016-11-05T16:20:03.650Z,45
2016-11-05T16:21:15.595Z,45
2016-11-05T16:22:27.011Z,40
2016-11-05T16:23:39.718Z,40
2016-11-05T16:24:51.398Z,40
2016-11-05T16:26:04.426Z,40
2016-11-05T16:27:16.975Z,35
2016-11-05T16:28:29.494Z,35
2016-11-05T16:29:40.586Z,35
2016-11-05T16:30:52.936Z,30
2016-11-05T16:32:03.261Z,30
2016-11-05T16:33:14.529Z,25
2016-11-05T16:34:26.797Z,25
2016-11-05T16:35:38.496Z,25
2016-11-05T16:36:50.290Z,20
2016-11-05T16:38:02.877Z,20
2016-11-05T16:39:14.885Z,15
2016-11-05T16:40:27.587Z,15
2016-11-05T16:41:39.151Z,15
2016-11-05T16:42:51.297Z,15
2016-11-05T16:44:02.255Z,10
2016-11-05T16:45:12.999Z,10
2016-11-05T16:46:24.550Z,10
2016-11-05T16:47:35.845Z,5
2016-11-05T16:48:47.436Z,5
2016-11-05T16:50:00.163Z,5
2016-11-05T16:51:12.384Z,5
2016-11-05T16:52:25.066Z,5
2016-11-05T16:53:36.331Z,5
2016-11-05T16:54:48.223Z,5
2016-11-05T16:55:59.984Z,0
2016-11-05T16:57:11.530Z,0
2016-11-05T16:58:23.033Z,0
2016-11-05T16:59:36.099Z,0
2016-11-05T17:00:48.470Z,0
2016-11-05T17:01:59.855Z,0
2016-11-05T17:03:11.667Z,0
2016-11-05T17:04:23.525Z,0
2016-11-05T17:05:35.158Z,0